sensor_id;sensor_type;location;lat;lon;timestamp;temperature;humidity
47434;SHT31;33184;48.774;8.918;2023-02-15T00:01:43;0.16;84.84
47434;SHT31;33184;48.774;8.918;2023-02-15T00:07:03;0.16;85.02
47434;SHT31;33184;48.774;8.918;2023-02-15T00:12:24;0.13;85.26
47434;SHT31;33184;48.774;8.918;2023-02-15T00:17:44;0.14;85.44
47434;SHT31;33184;48.774;8.918;2023-02-15T00:23:05;0.11;85.56
47434;SHT31;33184;48.774;8.918;2023-02-15T00:28:26;0.14;86.01
47434;SHT31;33184;48.774;8.918;2023-02-15T00:33:46;0.11;86.15
47434;SHT31;33184;48.774;8.918;2023-02-15T00:39:07;0.11;86.10
47434;SHT31;33184;48.774;8.918;2023-02-15T00:44:29;0.01;86.14
47434;SHT31;33184;48.774;8.918;2023-02-15T00:49:50;0.03;86.54
47434;SHT31;33184;48.774;8.918;2023-02-15T00:55:12;0.06;86.45
47434;SHT31;33184;48.774;8.918;2023-02-15T01:00:33;0.01;86.34
47434;SHT31;33184;48.774;8.918;2023-02-15T01:05:53;-0.09;85.95
47434;SHT31;33184;48.774;8.918;2023-02-15T01:11:17;-0.09;85.97
47434;SHT31;33184;48.774;8.918;2023-02-15T01:16:43;-0.13;85.52
47434;SHT31;33184;48.774;8.918;2023-02-15T01:22:04;-0.20;85.57
47434;SHT31;33184;48.774;8.918;2023-02-15T01:27:28;-0.35;84.92
47434;SHT31;33184;48.774;8.918;2023-02-15T01:32:50;-0.35;84.80
47434;SHT31;33184;48.774;8.918;2023-02-15T01:38:12;-0.40;84.57
47434;SHT31;33184;48.774;8.918;2023-02-15T01:43:41;-0.52;84.02
47434;SHT31;33184;48.774;8.918;2023-02-15T01:49:08;-0.70;84.30
47434;SHT31;33184;48.774;8.918;2023-02-15T01:54:32;-0.73;85.45
47434;SHT31;33184;48.774;8.918;2023-02-15T01:59:59;-0.75;85.95
47434;SHT31;33184;48.774;8.918;2023-02-15T02:05:21;-0.70;86.39
47434;SHT31;33184;48.774;8.918;2023-02-15T02:10:42;-0.79;86.28
47434;SHT31;33184;48.774;8.918;2023-02-15T02:16:58;-0.80;86.14
47434;SHT31;33184;48.774;8.918;2023-02-15T02:27:52;-0.89;85.62
47434;SHT31;33184;48.774;8.918;2023-02-15T02:33:28;-0.95;85.59
47434;SHT31;33184;48.774;8.918;2023-02-15T02:39:06;-1.09;85.06
47434;SHT31;33184;48.774;8.918;2023-02-15T02:44:29;-1.16;85.40
47434;SHT31;33184;48.774;8.918;2023-02-15T02:50:06;-1.16;86.03
47434;SHT31;33184;48.774;8.918;2023-02-15T02:55:30;-1.12;86.41
47434;SHT31;33184;48.774;8.918;2023-02-15T03:00:59;-1.15;86.25
47434;SHT31;33184;48.774;8.918;2023-02-15T03:06:30;-1.12;86.00
47434;SHT31;33184;48.774;8.918;2023-02-15T03:11:53;-1.29;85.32
47434;SHT31;33184;48.774;8.918;2023-02-15T03:17:17;-1.46;84.44
47434;SHT31;33184;48.774;8.918;2023-02-15T03:22:46;-1.52;84.08
47434;SHT31;33184;48.774;8.918;2023-02-15T03:28:12;-1.54;84.01
47434;SHT31;33184;48.774;8.918;2023-02-15T03:33:36;-1.55;84.32
47434;SHT31;33184;48.774;8.918;2023-02-15T03:39:21;-1.58;84.36
47434;SHT31;33184;48.774;8.918;2023-02-15T03:50:19;-1.82;83.94
47434;SHT31;33184;48.774;8.918;2023-02-15T03:55:58;-1.92;83.81
47434;SHT31;33184;48.774;8.918;2023-02-15T04:07:03;-2.03;83.30
47434;SHT31;33184;48.774;8.918;2023-02-15T04:12:24;-2.06;83.48
47434;SHT31;33184;48.774;8.918;2023-02-15T04:17:44;-2.09;83.34
47434;SHT31;33184;48.774;8.918;2023-02-15T04:23:06;-2.06;83.69
47434;SHT31;33184;48.774;8.918;2023-02-15T04:28:45;-2.12;83.47
47434;SHT31;33184;48.774;8.918;2023-02-15T04:34:06;-2.19;83.96
47434;SHT31;33184;48.774;8.918;2023-02-15T04:39:26;-2.06;84.24
47434;SHT31;33184;48.774;8.918;2023-02-15T04:44:47;-2.05;84.66
47434;SHT31;33184;48.774;8.918;2023-02-15T04:50:08;-2.09;84.95
47434;SHT31;33184;48.774;8.918;2023-02-15T04:55:28;-2.16;84.93
47434;SHT31;33184;48.774;8.918;2023-02-15T05:00:49;-2.16;85.25
47434;SHT31;33184;48.774;8.918;2023-02-15T05:06:09;-2.12;85.68
47434;SHT31;33184;48.774;8.918;2023-02-15T05:11:30;-2.15;85.72
47434;SHT31;33184;48.774;8.918;2023-02-15T05:16:50;-2.20;85.16
47434;SHT31;33184;48.774;8.918;2023-02-15T05:22:11;-2.27;85.29
47434;SHT31;33184;48.774;8.918;2023-02-15T05:27:32;-2.35;85.78
47434;SHT31;33184;48.774;8.918;2023-02-15T05:33:11;-2.35;85.51
47434;SHT31;33184;48.774;8.918;2023-02-15T05:38:32;-2.30;85.60
47434;SHT31;33184;48.774;8.918;2023-02-15T05:43:55;-2.42;85.13
47434;SHT31;33184;48.774;8.918;2023-02-15T05:49:16;-2.36;85.34
47434;SHT31;33184;48.774;8.918;2023-02-15T05:54:37;-2.23;86.16
47434;SHT31;33184;48.774;8.918;2023-02-15T05:59:57;-2.23;86.88
47434;SHT31;33184;48.774;8.918;2023-02-15T06:05:18;-2.10;87.54
47434;SHT31;33184;48.774;8.918;2023-02-15T06:10:38;-2.15;87.45
47434;SHT31;33184;48.774;8.918;2023-02-15T06:16:00;-2.07;87.33
47434;SHT31;33184;48.774;8.918;2023-02-15T06:21:20;-2.03;87.09
47434;SHT31;33184;48.774;8.918;2023-02-15T06:26:41;-2.03;86.65
47434;SHT31;33184;48.774;8.918;2023-02-15T06:32:02;-2.10;86.44
47434;SHT31;33184;48.774;8.918;2023-02-15T06:37:22;-2.10;86.90
47434;SHT31;33184;48.774;8.918;2023-02-15T06:42:43;-2.05;87.30
47434;SHT31;33184;48.774;8.918;2023-02-15T06:48:04;-2.06;87.22
47434;SHT31;33184;48.774;8.918;2023-02-15T06:53:27;-2.07;86.76
47434;SHT31;33184;48.774;8.918;2023-02-15T06:58:47;-2.15;86.91
47434;SHT31;33184;48.774;8.918;2023-02-15T07:04:09;-2.17;87.18
47434;SHT31;33184;48.774;8.918;2023-02-15T07:09:30;-2.09;87.73
47434;SHT31;33184;48.774;8.918;2023-02-15T07:14:51;-1.93;87.59
47434;SHT31;33184;48.774;8.918;2023-02-15T07:20:20;-1.81;87.40
47434;SHT31;33184;48.774;8.918;2023-02-15T07:25:41;-1.75;87.13
47434;SHT31;33184;48.774;8.918;2023-02-15T07:31:03;-1.54;87.67
47434;SHT31;33184;48.774;8.918;2023-02-15T07:36:24;-1.43;87.89
47434;SHT31;33184;48.774;8.918;2023-02-15T07:41:44;-1.26;88.10
47434;SHT31;33184;48.774;8.918;2023-02-15T07:47:06;-1.24;88.20
47434;SHT31;33184;48.774;8.918;2023-02-15T07:52:26;-1.20;88.21
47434;SHT31;33184;48.774;8.918;2023-02-15T07:57:49;-1.20;88.15
47434;SHT31;33184;48.774;8.918;2023-02-15T08:03:10;-1.10;88.30
47434;SHT31;33184;48.774;8.918;2023-02-15T08:08:34;-0.79;88.80
47434;SHT31;33184;48.774;8.918;2023-02-15T08:19:26;0.06;89.98
47434;SHT31;33184;48.774;8.918;2023-02-15T08:24:47;0.42;90.33
47434;SHT31;33184;48.774;8.918;2023-02-15T08:30:08;0.34;90.09
47434;SHT31;33184;48.774;8.918;2023-02-15T08:35:29;0.44;90.02
47434;SHT31;33184;48.774;8.918;2023-02-15T08:40:50;0.47;90.02
47434;SHT31;33184;48.774;8.918;2023-02-15T08:46:11;0.66;90.20
47434;SHT31;33184;48.774;8.918;2023-02-15T08:51:34;0.85;90.18
47434;SHT31;33184;48.774;8.918;2023-02-15T08:56:55;0.88;89.43
47434;SHT31;33184;48.774;8.918;2023-02-15T09:02:16;1.02;88.78
47434;SHT31;33184;48.774;8.918;2023-02-15T09:07:36;1.19;88.29
47434;SHT31;33184;48.774;8.918;2023-02-15T09:12:57;1.40;87.97
47434;SHT31;33184;48.774;8.918;2023-02-15T09:18:17;1.61;87.59
47434;SHT31;33184;48.774;8.918;2023-02-15T09:23:39;1.99;87.50
47434;SHT31;33184;48.774;8.918;2023-02-15T09:29:00;2.29;87.11
47434;SHT31;33184;48.774;8.918;2023-02-15T09:34:22;2.56;86.44
47434;SHT31;33184;48.774;8.918;2023-02-15T09:39:43;2.94;85.69
47434;SHT31;33184;48.774;8.918;2023-02-15T10:08:49;4.53;80.52
47434;SHT31;33184;48.774;8.918;2023-02-15T10:42:45;7.01;73.51
47434;SHT31;33184;48.774;8.918;2023-02-15T10:59:40;8.26;66.09
47434;SHT31;33184;48.774;8.918;2023-02-15T11:11:04;9.87;62.88
47434;SHT31;33184;48.774;8.918;2023-02-15T11:16:34;9.98;61.35
47434;SHT31;33184;48.774;8.918;2023-02-15T11:22:04;10.11;57.67
47434;SHT31;33184;48.774;8.918;2023-02-15T11:27:31;10.59;60.23
47434;SHT31;33184;48.774;8.918;2023-02-15T11:32:55;11.30;56.21
47434;SHT31;33184;48.774;8.918;2023-02-15T11:38:23;11.64;51.69
47434;SHT31;33184;48.774;8.918;2023-02-15T11:44:00;12.23;49.35
47434;SHT31;33184;48.774;8.918;2023-02-15T11:49:34;12.68;50.87
47434;SHT31;33184;48.774;8.918;2023-02-15T11:54:55;13.24;49.32
47434;SHT31;33184;48.774;8.918;2023-02-15T12:00:34;13.70;50.13
47434;SHT31;33184;48.774;8.918;2023-02-15T12:06:01;14.32;47.68
47434;SHT31;33184;48.774;8.918;2023-02-15T12:11:29;14.41;48.15
47434;SHT31;33184;48.774;8.918;2023-02-15T12:16:53;14.06;46.37
47434;SHT31;33184;48.774;8.918;2023-02-15T12:27:42;14.30;50.46
47434;SHT31;33184;48.774;8.918;2023-02-15T12:33:27;14.06;49.29
47434;SHT31;33184;48.774;8.918;2023-02-15T12:44:33;14.58;52.25
47434;SHT31;33184;48.774;8.918;2023-02-15T12:55:36;14.62;50.47
47434;SHT31;33184;48.774;8.918;2023-02-15T13:01:18;14.37;50.88
47434;SHT31;33184;48.774;8.918;2023-02-15T13:06:48;14.71;52.13
47434;SHT31;33184;48.774;8.918;2023-02-15T13:12:24;14.91;49.97
47434;SHT31;33184;48.774;8.918;2023-02-15T13:17:46;15.30;48.27
47434;SHT31;33184;48.774;8.918;2023-02-15T13:23:24;14.98;46.92
47434;SHT31;33184;48.774;8.918;2023-02-15T13:28:51;14.96;48.76
47434;SHT31;33184;48.774;8.918;2023-02-15T13:34:34;15.30;46.99
47434;SHT31;33184;48.774;8.918;2023-02-15T13:45:40;15.63;48.92
47434;SHT31;33184;48.774;8.918;2023-02-15T13:57:08;15.16;45.07
47434;SHT31;33184;48.774;8.918;2023-02-15T14:25:41;14.92;46.63
47434;SHT31;33184;48.774;8.918;2023-02-15T14:31:04;14.57;47.02
47434;SHT31;33184;48.774;8.918;2023-02-15T14:36:27;14.01;47.72
47434;SHT31;33184;48.774;8.918;2023-02-15T14:41:53;13.28;49.23
47434;SHT31;33184;48.774;8.918;2023-02-15T14:47:21;12.84;49.26
47434;SHT31;33184;48.774;8.918;2023-02-15T14:58:35;12.08;50.51
47434;SHT31;33184;48.774;8.918;2023-02-15T15:04:03;11.81;49.62
47434;SHT31;33184;48.774;8.918;2023-02-15T15:09:27;11.71;49.66
47434;SHT31;33184;48.774;8.918;2023-02-15T15:14:49;11.52;51.14
47434;SHT31;33184;48.774;8.918;2023-02-15T15:20:51;11.43;53.77
47434;SHT31;33184;48.774;8.918;2023-02-15T15:26:26;11.25;56.31
47434;SHT31;33184;48.774;8.918;2023-02-15T15:31:51;11.03;57.59
47434;SHT31;33184;48.774;8.918;2023-02-15T15:48:54;10.52;57.96
47434;SHT31;33184;48.774;8.918;2023-02-15T15:54:20;10.33;58.06
47434;SHT31;33184;48.774;8.918;2023-02-15T15:59:45;10.17;59.73
47434;SHT31;33184;48.774;8.918;2023-02-15T16:05:08;9.93;61.66
47434;SHT31;33184;48.774;8.918;2023-02-15T16:10:30;9.50;63.39
47434;SHT31;33184;48.774;8.918;2023-02-15T16:15:54;9.37;64.34
47434;SHT31;33184;48.774;8.918;2023-02-15T16:21:27;9.37;64.66
47434;SHT31;33184;48.774;8.918;2023-02-15T16:32:26;9.16;65.55
47434;SHT31;33184;48.774;8.918;2023-02-15T16:37:48;9.05;65.93
47434;SHT31;33184;48.774;8.918;2023-02-15T16:43:15;8.91;66.13
47434;SHT31;33184;48.774;8.918;2023-02-15T16:48:41;8.68;67.12
47434;SHT31;33184;48.774;8.918;2023-02-15T16:54:18;8.27;67.77
47434;SHT31;33184;48.774;8.918;2023-02-15T16:59:42;7.87;68.70
47434;SHT31;33184;48.774;8.918;2023-02-15T17:10:39;7.38;69.39
47434;SHT31;33184;48.774;8.918;2023-02-15T17:21:39;6.80;70.76
47434;SHT31;33184;48.774;8.918;2023-02-15T17:27:05;6.70;70.68
47434;SHT31;33184;48.774;8.918;2023-02-15T17:32:29;6.73;70.19
47434;SHT31;33184;48.774;8.918;2023-02-15T17:37:54;6.40;71.24
47434;SHT31;33184;48.774;8.918;2023-02-15T17:43:20;6.26;71.00
47434;SHT31;33184;48.774;8.918;2023-02-15T17:48:41;6.22;71.28
47434;SHT31;33184;48.774;8.918;2023-02-15T17:54:02;6.09;71.54
47434;SHT31;33184;48.774;8.918;2023-02-15T17:59:42;5.94;71.39
47434;SHT31;33184;48.774;8.918;2023-02-15T18:05:21;5.61;72.09
47434;SHT31;33184;48.774;8.918;2023-02-15T18:11:00;5.48;73.45
47434;SHT31;33184;48.774;8.918;2023-02-15T18:16:41;5.30;74.23
47434;SHT31;33184;48.774;8.918;2023-02-15T18:22:09;5.23;74.53
47434;SHT31;33184;48.774;8.918;2023-02-15T18:27:30;5.19;74.81
47434;SHT31;33184;48.774;8.918;2023-02-15T18:32:53;5.06;74.32
47434;SHT31;33184;48.774;8.918;2023-02-15T18:38:15;4.98;74.55
47434;SHT31;33184;48.774;8.918;2023-02-15T18:43:36;4.88;74.81
47434;SHT31;33184;48.774;8.918;2023-02-15T18:48:56;4.74;74.86
47434;SHT31;33184;48.774;8.918;2023-02-15T18:54:21;4.54;75.78
47434;SHT31;33184;48.774;8.918;2023-02-15T18:59:42;4.55;75.56
47434;SHT31;33184;48.774;8.918;2023-02-15T19:05:03;4.45;75.00
47434;SHT31;33184;48.774;8.918;2023-02-15T19:10:26;4.35;75.35
47434;SHT31;33184;48.774;8.918;2023-02-15T19:15:47;4.17;75.78
47434;SHT31;33184;48.774;8.918;2023-02-15T19:21:14;4.07;76.57
47434;SHT31;33184;48.774;8.918;2023-02-15T19:26:37;4.00;76.76
47434;SHT31;33184;48.774;8.918;2023-02-15T19:31:59;3.85;77.87
47434;SHT31;33184;48.774;8.918;2023-02-15T19:37:39;3.78;78.78
47434;SHT31;33184;48.774;8.918;2023-02-15T19:43:02;3.81;79.24
47434;SHT31;33184;48.774;8.918;2023-02-15T19:48:23;3.78;78.23
47434;SHT31;33184;48.774;8.918;2023-02-15T19:53:45;3.65;78.30
47434;SHT31;33184;48.774;8.918;2023-02-15T19:59:19;3.49;78.16
47434;SHT31;33184;48.774;8.918;2023-02-15T20:04:41;3.42;78.25
47434;SHT31;33184;48.774;8.918;2023-02-15T20:10:02;3.37;78.16
47434;SHT31;33184;48.774;8.918;2023-02-15T20:15:26;3.29;77.97
47434;SHT31;33184;48.774;8.918;2023-02-15T20:20:49;3.18;78.36
47434;SHT31;33184;48.774;8.918;2023-02-15T20:26:15;2.98;78.28
47434;SHT31;33184;48.774;8.918;2023-02-15T20:31:37;2.91;78.26
47434;SHT31;33184;48.774;8.918;2023-02-15T20:36:58;2.83;78.37
47434;SHT31;33184;48.774;8.918;2023-02-15T20:42:19;2.70;78.49
47434;SHT31;33184;48.774;8.918;2023-02-15T20:47:40;2.69;78.30
47434;SHT31;33184;48.774;8.918;2023-02-15T20:53:08;2.69;79.12
47434;SHT31;33184;48.774;8.918;2023-02-15T20:58:29;2.67;78.99
47434;SHT31;33184;48.774;8.918;2023-02-15T21:03:49;2.65;79.68
47434;SHT31;33184;48.774;8.918;2023-02-15T21:09:14;2.57;79.78
47434;SHT31;33184;48.774;8.918;2023-02-15T21:14:35;2.42;79.47
47434;SHT31;33184;48.774;8.918;2023-02-15T21:19:57;2.26;79.88
47434;SHT31;33184;48.774;8.918;2023-02-15T21:25:26;2.23;79.67
47434;SHT31;33184;48.774;8.918;2023-02-15T21:30:49;2.09;79.81
47434;SHT31;33184;48.774;8.918;2023-02-15T21:36:19;2.03;79.60
47434;SHT31;33184;48.774;8.918;2023-02-15T21:41:43;1.98;79.42
47434;SHT31;33184;48.774;8.918;2023-02-15T21:47:26;1.91;79.64
47434;SHT31;33184;48.774;8.918;2023-02-15T21:53:10;1.80;79.42
47434;SHT31;33184;48.774;8.918;2023-02-15T21:58:34;1.78;79.33
47434;SHT31;33184;48.774;8.918;2023-02-15T22:03:57;1.75;79.60
47434;SHT31;33184;48.774;8.918;2023-02-15T22:09:20;1.70;79.70
47434;SHT31;33184;48.774;8.918;2023-02-15T22:14:42;1.57;80.02
47434;SHT31;33184;48.774;8.918;2023-02-15T22:20:12;1.46;80.34
47434;SHT31;33184;48.774;8.918;2023-02-15T22:25:32;1.37;80.56
47434;SHT31;33184;48.774;8.918;2023-02-15T22:30:53;1.17;81.00
47434;SHT31;33184;48.774;8.918;2023-02-15T22:36:25;1.16;81.56
47434;SHT31;33184;48.774;8.918;2023-02-15T22:41:47;0.97;81.33
47434;SHT31;33184;48.774;8.918;2023-02-15T22:47:14;1.02;81.91
47434;SHT31;33184;48.774;8.918;2023-02-15T22:52:37;1.10;81.55
47434;SHT31;33184;48.774;8.918;2023-02-15T22:57:58;1.06;81.45
47434;SHT31;33184;48.774;8.918;2023-02-15T23:03:22;1.07;81.61
47434;SHT31;33184;48.774;8.918;2023-02-15T23:08:43;1.03;80.94
47434;SHT31;33184;48.774;8.918;2023-02-15T23:14:04;0.86;81.16
47434;SHT31;33184;48.774;8.918;2023-02-15T23:19:25;0.89;81.30
47434;SHT31;33184;48.774;8.918;2023-02-15T23:24:49;0.91;81.15
47434;SHT31;33184;48.774;8.918;2023-02-15T23:30:12;0.84;81.73
47434;SHT31;33184;48.774;8.918;2023-02-15T23:35:33;0.86;81.74
47434;SHT31;33184;48.774;8.918;2023-02-15T23:41:02;0.86;81.35
47434;SHT31;33184;48.774;8.918;2023-02-15T23:46:43;0.76;81.15
47434;SHT31;33184;48.774;8.918;2023-02-15T23:52:07;0.68;81.19
47434;SHT31;33184;48.774;8.918;2023-02-15T23:57:28;0.66;81.44
